createdAt,value
2024-03-26T00:00:11.883Z,7.30
2024-03-26T00:02:40.552Z,6.20
2024-03-26T00:05:08.445Z,5.10
2024-03-26T00:07:38.673Z,4.70
2024-03-26T00:10:06.397Z,4.40
2024-03-26T00:12:33.408Z,4.70
2024-03-26T00:15:00.450Z,6.10
2024-03-26T00:17:27.415Z,7.50
2024-03-26T00:19:54.556Z,4.10
2024-03-26T00:22:21.507Z,4.70
2024-03-26T00:24:48.568Z,4.30
2024-03-26T00:27:15.617Z,5.20
2024-03-26T00:29:42.603Z,4.70
2024-03-26T00:32:09.626Z,4.00
2024-03-26T00:34:36.571Z,3.80
2024-03-26T00:37:03.630Z,4.50
2024-03-26T00:39:30.815Z,5.00
2024-03-26T00:41:57.837Z,4.50
2024-03-26T00:44:24.893Z,4.50
2024-03-26T00:46:51.949Z,5.90
2024-03-26T00:49:18.905Z,6.20
2024-03-26T00:51:45.871Z,5.30
2024-03-26T00:54:13.110Z,5.60
2024-03-26T00:56:40.382Z,4.70
2024-03-26T00:59:07.531Z,5.20
2024-03-26T01:01:38.694Z,5.10
2024-03-26T01:04:06.357Z,7.50
2024-03-26T01:06:33.424Z,6.20
2024-03-26T01:09:00.403Z,6.00
2024-03-26T01:11:27.312Z,6.60
2024-03-26T01:13:54.461Z,6.60
2024-03-26T01:16:21.389Z,8.20
2024-03-26T01:18:48.260Z,6.80
2024-03-26T01:21:15.061Z,6.00
2024-03-26T01:23:41.999Z,6.30
2024-03-26T01:26:08.919Z,6.20
2024-03-26T01:28:35.877Z,6.40
2024-03-26T01:31:02.943Z,6.00
2024-03-26T01:33:29.970Z,5.90
2024-03-26T01:35:56.927Z,6.80
2024-03-26T01:38:23.978Z,5.90
2024-03-26T01:40:50.934Z,5.80
2024-03-26T01:43:18.193Z,6.00
2024-03-26T01:45:45.139Z,6.30
2024-03-26T01:48:11.992Z,6.40
2024-03-26T01:50:38.946Z,6.00
2024-03-26T01:53:06.005Z,9.20
2024-03-26T01:55:33.706Z,6.80
2024-03-26T01:58:01.049Z,7.90
2024-03-26T02:00:27.991Z,7.00
2024-03-26T02:02:55.242Z,7.80
2024-03-26T02:05:22.190Z,7.10
2024-03-26T02:07:49.140Z,8.00
2024-03-26T02:10:16.190Z,7.30
2024-03-26T02:12:43.063Z,7.40
2024-03-26T02:15:10.263Z,8.40
2024-03-26T02:17:37.775Z,8.20
2024-03-26T02:20:05.544Z,7.40
2024-03-26T02:22:32.717Z,8.50
2024-03-26T02:24:59.758Z,8.80
2024-03-26T02:27:26.911Z,8.60
2024-03-26T02:29:53.972Z,11.80
2024-03-26T02:32:20.915Z,12.10
2024-03-26T02:34:48.788Z,8.70
2024-03-26T02:37:15.845Z,9.70
2024-03-26T02:39:42.892Z,8.60
2024-03-26T02:42:10.157Z,8.20
2024-03-26T02:44:37.102Z,9.20
2024-03-26T02:47:04.062Z,9.50
2024-03-26T02:49:31.182Z,8.60
2024-03-26T02:51:58.262Z,10.60
2024-03-26T02:54:26.956Z,8.70
2024-03-26T02:56:53.910Z,9.00
2024-03-26T02:59:20.969Z,9.90
2024-03-26T03:01:47.922Z,10.80
2024-03-26T03:04:14.969Z,10.70
2024-03-26T03:06:41.967Z,8.50
2024-03-26T03:09:09.384Z,10.90
2024-03-26T03:11:36.334Z,10.10
2024-03-26T03:14:05.031Z,9.80
2024-03-26T03:16:32.087Z,8.90
2024-03-26T03:18:59.141Z,9.60
2024-03-26T03:21:26.196Z,9.30
2024-03-26T03:23:53.346Z,9.40
2024-03-26T03:26:20.298Z,9.60
2024-03-26T03:28:47.250Z,9.60
2024-03-26T03:31:14.208Z,11.30
2024-03-26T03:33:41.256Z,11.40
2024-03-26T03:36:10.155Z,9.90
2024-03-26T03:38:37.111Z,10.50
2024-03-26T03:41:04.263Z,10.40
2024-03-26T03:43:31.495Z,11.60
2024-03-26T03:45:58.480Z,17.00
2024-03-26T03:48:25.431Z,11.20
2024-03-26T03:50:52.580Z,11.50
2024-03-26T03:53:19.641Z,11.40
2024-03-26T03:55:46.688Z,11.30
2024-03-26T03:58:14.083Z,13.40
2024-03-26T04:00:41.047Z,12.10
2024-03-26T04:03:07.932Z,10.30
2024-03-26T04:05:40.860Z,10.70
2024-03-26T04:08:10.268Z,11.10
2024-03-26T04:10:44.695Z,12.10
2024-03-26T04:13:11.590Z,11.50
2024-03-26T04:15:41.773Z,13.50
2024-03-26T04:18:09.011Z,12.10
2024-03-26T04:20:35.954Z,12.40
2024-03-26T04:23:03.017Z,10.00
2024-03-26T04:25:30.204Z,10.70
2024-03-26T04:27:57.765Z,10.20
2024-03-26T04:30:24.695Z,11.90
2024-03-26T04:32:51.593Z,12.30
2024-03-26T04:35:18.393Z,11.40
2024-03-26T04:37:46.264Z,11.00
2024-03-26T04:40:14.106Z,12.80
2024-03-26T04:42:41.193Z,8.50
2024-03-26T04:45:08.351Z,10.50
2024-03-26T04:47:35.410Z,10.40
2024-03-26T04:50:02.582Z,8.90
2024-03-26T04:52:29.972Z,9.90
2024-03-26T04:54:57.172Z,8.60
2024-03-26T04:57:24.127Z,8.60
2024-03-26T04:59:51.097Z,9.10
2024-03-26T05:02:18.136Z,10.20
2024-03-26T05:04:45.200Z,10.10
2024-03-26T05:07:12.073Z,9.60
2024-03-26T05:09:39.128Z,12.10
2024-03-26T05:12:06.149Z,11.20
2024-03-26T05:14:33.257Z,12.10
2024-03-26T05:17:00.196Z,10.20
2024-03-26T05:19:26.965Z,12.00
2024-03-26T05:21:53.894Z,10.60
2024-03-26T05:24:20.716Z,10.30
2024-03-26T05:26:47.634Z,11.50
2024-03-26T05:29:18.306Z,12.90
2024-03-26T05:31:45.191Z,10.30
2024-03-26T05:34:12.035Z,8.50
2024-03-26T05:36:38.878Z,9.30
2024-03-26T05:39:05.700Z,9.80
2024-03-26T05:41:33.257Z,10.00
2024-03-26T05:44:00.185Z,9.80
2024-03-26T05:46:27.047Z,10.60
2024-03-26T05:48:53.971Z,13.60
2024-03-26T05:51:20.958Z,12.90
2024-03-26T05:53:47.915Z,11.70
2024-03-26T05:56:14.785Z,12.00
2024-03-26T05:58:41.880Z,10.70
2024-03-26T06:01:09.555Z,10.20
2024-03-26T06:03:39.663Z,14.20
2024-03-26T06:06:07.491Z,9.40
2024-03-26T06:08:34.433Z,9.70
2024-03-26T06:11:01.688Z,10.80
2024-03-26T06:13:28.701Z,8.70
2024-03-26T06:16:09.534Z,9.20
2024-03-26T06:18:37.092Z,11.30
2024-03-26T06:21:06.828Z,9.70
2024-03-26T06:23:33.861Z,10.60
2024-03-26T06:26:00.835Z,10.30
2024-03-26T06:28:27.750Z,11.10
2024-03-26T06:30:54.792Z,12.40
2024-03-26T06:33:23.607Z,12.50
2024-03-26T06:35:52.320Z,14.50
2024-03-26T06:38:19.246Z,11.50
2024-03-26T06:40:46.929Z,11.80
2024-03-26T06:43:13.822Z,10.30
2024-03-26T06:45:40.747Z,11.90
2024-03-26T06:48:08.037Z,12.90
2024-03-26T06:50:35.301Z,8.70
2024-03-26T06:53:02.184Z,12.00
2024-03-26T06:55:29.276Z,14.00
2024-03-26T06:57:57.707Z,12.80
2024-03-26T07:00:24.550Z,10.20
2024-03-26T07:02:51.526Z,9.20
2024-03-26T07:05:20.259Z,8.80
2024-03-26T07:07:47.277Z,10.20
2024-03-26T07:10:14.449Z,7.90
2024-03-26T07:12:41.965Z,7.60
2024-03-26T07:15:09.703Z,7.80
2024-03-26T07:17:36.884Z,8.10
2024-03-26T07:20:04.406Z,7.60
2024-03-26T07:22:31.667Z,7.90
2024-03-26T07:24:58.921Z,5.70
2024-03-26T07:27:25.725Z,6.60
2024-03-26T07:29:52.569Z,7.00
2024-03-26T07:32:19.573Z,6.40
2024-03-26T07:34:46.536Z,5.70
2024-03-26T07:37:13.373Z,5.70
2024-03-26T07:39:40.409Z,5.40
2024-03-26T07:42:07.704Z,5.90
2024-03-26T07:44:34.554Z,6.10
2024-03-26T07:47:01.571Z,5.70
2024-03-26T07:49:28.365Z,5.60
2024-03-26T07:51:57.195Z,5.10
2024-03-26T07:54:24.480Z,5.10
2024-03-26T07:56:51.375Z,5.10
2024-03-26T07:59:18.212Z,6.00
2024-03-26T08:01:45.148Z,3.90
2024-03-26T08:04:11.993Z,6.10
2024-03-26T08:06:38.816Z,4.30
2024-03-26T08:09:06.543Z,6.40
2024-03-26T08:11:33.772Z,5.40
2024-03-26T08:14:04.109Z,5.70
2024-03-26T08:16:31.567Z,5.20
2024-03-26T08:18:58.384Z,4.80
2024-03-26T08:21:25.354Z,4.10
2024-03-26T08:23:52.322Z,6.10
2024-03-26T08:26:19.290Z,4.00
2024-03-26T08:28:46.291Z,4.90
2024-03-26T08:31:13.231Z,3.80
2024-03-26T08:33:40.167Z,3.90
2024-03-26T08:36:07.126Z,3.90
2024-03-26T08:38:35.195Z,5.60
2024-03-26T08:41:02.218Z,3.30
2024-03-26T08:43:30.269Z,3.80
2024-03-26T08:45:57.411Z,4.70
2024-03-26T08:48:24.346Z,5.40
2024-03-26T08:50:51.697Z,3.50
2024-03-26T08:53:18.615Z,3.10
2024-03-26T08:55:45.471Z,2.70
2024-03-26T08:58:14.935Z,4.00
2024-03-26T09:00:44.600Z,4.00
2024-03-26T09:03:11.730Z,3.10
2024-03-26T09:05:38.828Z,4.80
2024-03-26T09:08:06.133Z,3.40
2024-03-26T09:10:33.161Z,3.90
2024-03-26T09:13:00.291Z,3.20
2024-03-26T09:15:27.406Z,2.70
2024-03-26T09:17:54.650Z,2.40
2024-03-26T09:20:21.677Z,3.30
2024-03-26T09:22:48.691Z,2.70
2024-03-26T09:25:15.971Z,2.90
2024-03-26T09:27:42.837Z,2.40
2024-03-26T09:30:10.242Z,2.80
2024-03-26T09:32:37.293Z,3.60
2024-03-26T09:35:04.549Z,2.70
2024-03-26T09:37:32.589Z,6.00
2024-03-26T09:40:00.098Z,3.70
2024-03-26T09:42:27.160Z,4.40
2024-03-26T09:45:02.166Z,4.90
2024-03-26T09:47:34.253Z,4.60
2024-03-26T09:50:04.833Z,4.20
2024-03-26T09:52:34.300Z,2.60
2024-03-26T09:55:06.796Z,3.50
2024-03-26T09:57:33.768Z,2.90
2024-03-26T10:00:00.761Z,2.80
2024-03-26T10:02:28.366Z,4.30
2024-03-26T10:04:55.277Z,4.40
2024-03-26T10:07:22.159Z,3.30
2024-03-26T10:09:49.056Z,3.10
2024-03-26T10:12:15.948Z,3.80
2024-03-26T10:14:42.746Z,4.30
2024-03-26T10:17:10.292Z,4.80
2024-03-26T10:19:37.204Z,3.70
2024-03-26T10:22:04.473Z,4.20
2024-03-26T10:24:31.927Z,4.40
2024-03-26T10:26:58.751Z,4.10
2024-03-26T10:29:25.569Z,4.80
2024-03-26T10:31:52.490Z,5.10
2024-03-26T10:34:20.667Z,3.40
2024-03-26T10:36:47.612Z,3.80
2024-03-26T10:39:15.291Z,4.50
2024-03-26T10:41:42.744Z,3.80
2024-03-26T10:44:09.796Z,3.30
2024-03-26T10:46:36.968Z,3.00
2024-03-26T10:49:04.225Z,3.60
2024-03-26T10:51:31.477Z,3.20
2024-03-26T10:53:58.498Z,3.20
2024-03-26T10:56:27.581Z,3.90
2024-03-26T10:58:59.786Z,4.00
2024-03-26T11:01:28.466Z,6.60
2024-03-26T11:03:55.379Z,6.60
2024-03-26T11:06:22.721Z,6.00
2024-03-26T11:09:04.160Z,5.80
2024-03-26T11:11:36.240Z,7.70
2024-03-26T11:14:05.932Z,5.30
2024-03-26T11:16:42.617Z,5.00
2024-03-26T11:19:22.186Z,5.10
2024-03-26T11:21:51.617Z,4.50
2024-03-26T11:24:26.885Z,3.60
2024-03-26T11:26:53.775Z,5.90
2024-03-26T11:29:20.617Z,4.10
2024-03-26T11:31:47.567Z,5.40
2024-03-26T11:34:15.093Z,6.50
2024-03-26T11:36:42.563Z,4.90
2024-03-26T11:39:12.851Z,5.20
2024-03-26T11:41:39.714Z,5.50
2024-03-26T11:44:06.548Z,4.90
2024-03-26T11:46:35.334Z,4.30
2024-03-26T11:49:04.424Z,5.50
2024-03-26T11:51:31.589Z,3.30
2024-03-26T11:53:58.447Z,4.40
2024-03-26T11:56:25.720Z,4.00
2024-03-26T11:58:53.047Z,4.40
2024-03-26T12:01:21.817Z,6.30
2024-03-26T12:03:56.096Z,3.80
2024-03-26T12:06:26.983Z,3.90
2024-03-26T12:08:55.998Z,3.50
2024-03-26T12:11:22.909Z,4.30
2024-03-26T12:13:50.184Z,4.00
2024-03-26T12:16:28.742Z,5.10
2024-03-26T12:18:56.202Z,4.20
2024-03-26T12:21:23.471Z,6.40
2024-03-26T12:23:50.912Z,3.50
2024-03-26T12:26:17.862Z,4.20
2024-03-26T12:28:44.829Z,5.00
2024-03-26T12:31:12.012Z,7.00
2024-03-26T12:33:39.877Z,4.00
2024-03-26T12:36:06.938Z,4.80
2024-03-26T12:38:34.664Z,6.00
2024-03-26T12:41:01.697Z,6.20
2024-03-26T12:43:28.774Z,6.50
2024-03-26T12:45:55.788Z,6.70
2024-03-26T12:48:24.343Z,9.50
2024-03-26T12:50:54.408Z,6.90
2024-03-26T12:53:22.704Z,5.90
2024-03-26T12:55:51.365Z,5.50
2024-03-26T12:58:18.957Z,5.50
2024-03-26T13:00:46.763Z,5.90
2024-03-26T13:03:17.165Z,5.60
2024-03-26T13:05:44.879Z,5.40
2024-03-26T13:08:12.396Z,5.30
2024-03-26T13:10:43.455Z,6.60
2024-03-26T13:13:13.277Z,4.90
2024-03-26T13:15:40.081Z,9.50
2024-03-26T13:18:07.614Z,9.00
2024-03-26T13:20:34.551Z,5.60
2024-03-26T13:23:01.461Z,6.20
2024-03-26T13:25:28.307Z,4.40
2024-03-26T13:27:55.523Z,5.50
2024-03-26T13:30:27.438Z,6.20
2024-03-26T13:33:01.022Z,6.40
2024-03-26T13:35:28.201Z,6.00
2024-03-26T13:37:55.413Z,5.50
2024-03-26T13:40:40.917Z,5.60
2024-03-26T13:43:09.847Z,6.50
2024-03-26T13:45:42.899Z,5.80
2024-03-26T13:48:12.029Z,6.50
2024-03-26T13:50:42.808Z,5.00
2024-03-26T13:53:11.850Z,5.00
2024-03-26T13:55:39.625Z,7.20
2024-03-26T13:58:08.020Z,5.30
2024-03-26T14:00:41.082Z,5.60
2024-03-26T14:03:08.023Z,6.80
2024-03-26T14:05:35.354Z,4.80
2024-03-26T14:08:04.026Z,5.40
2024-03-26T14:10:31.194Z,8.20
2024-03-26T14:12:58.076Z,5.80
2024-03-26T14:15:24.969Z,5.30
2024-03-26T14:17:52.073Z,6.90
2024-03-26T14:20:22.295Z,8.50
2024-03-26T14:22:50.569Z,7.20
2024-03-26T14:25:17.697Z,6.90
2024-03-26T14:27:44.623Z,7.40
2024-03-26T14:30:12.700Z,8.20
2024-03-26T14:32:40.539Z,6.50
2024-03-26T14:35:08.210Z,6.50
2024-03-26T14:37:35.153Z,9.20
2024-03-26T14:40:02.212Z,7.70
2024-03-26T14:42:29.531Z,7.00
2024-03-26T14:44:56.522Z,9.60
2024-03-26T14:47:23.574Z,7.90
2024-03-26T14:49:50.628Z,9.40
2024-03-26T14:52:17.688Z,13.50
2024-03-26T14:54:44.680Z,14.30
2024-03-26T14:57:12.546Z,20.20
2024-03-26T14:59:39.672Z,19.60
2024-03-26T15:02:09.676Z,19.00
2024-03-26T15:04:36.847Z,20.30
2024-03-26T15:07:08.097Z,20.90
2024-03-26T15:09:34.970Z,19.80
2024-03-26T15:12:02.003Z,15.70
2024-03-26T15:14:29.023Z,13.20
2024-03-26T15:16:56.006Z,12.50
2024-03-26T15:19:23.016Z,12.40
2024-03-26T15:21:50.931Z,9.50
2024-03-26T15:24:17.916Z,10.70
2024-03-26T15:27:14.338Z,9.50
2024-03-26T15:30:00.195Z,10.10
2024-03-26T15:32:27.561Z,12.40
2024-03-26T15:34:55.603Z,9.90
2024-03-26T15:37:23.162Z,10.50
2024-03-26T15:39:50.020Z,10.30
2024-03-26T15:42:17.940Z,10.60
2024-03-26T15:44:44.936Z,9.90
2024-03-26T15:47:11.741Z,12.10
2024-03-26T15:49:38.676Z,7.90
2024-03-26T15:52:05.935Z,12.40
2024-03-26T15:54:33.469Z,10.00
2024-03-26T15:57:00.395Z,10.50
2024-03-26T15:59:27.335Z,10.30
2024-03-26T16:01:54.297Z,7.80
2024-03-26T16:04:21.303Z,7.50
2024-03-26T16:06:48.778Z,7.30
2024-03-26T16:09:16.950Z,8.40
2024-03-26T16:11:43.949Z,8.20
2024-03-26T16:14:10.810Z,9.80
2024-03-26T16:16:37.689Z,11.50
2024-03-26T16:19:04.592Z,12.10
2024-03-26T16:21:31.832Z,9.40
2024-03-26T16:23:58.954Z,13.00
2024-03-26T16:26:25.904Z,12.20
2024-03-26T16:28:58.352Z,7.40
2024-03-26T16:31:25.805Z,7.00
2024-03-26T16:33:52.669Z,7.30
2024-03-26T16:36:19.712Z,7.50
2024-03-26T16:38:46.881Z,7.30
2024-03-26T16:41:21.264Z,9.90
2024-03-26T16:43:59.435Z,9.50
2024-03-26T16:46:27.949Z,7.60
2024-03-26T16:48:54.863Z,6.00
2024-03-26T16:51:21.704Z,8.60
2024-03-26T16:53:48.837Z,6.90
2024-03-26T16:56:15.840Z,6.90
2024-03-26T16:58:42.795Z,8.10
2024-03-26T17:01:09.853Z,7.40
2024-03-26T17:03:36.791Z,8.80
2024-03-26T17:06:04.479Z,7.20
2024-03-26T17:08:33.031Z,6.70
2024-03-26T17:10:59.890Z,7.70
2024-03-26T17:13:31.020Z,8.10
2024-03-26T17:15:59.132Z,7.70
2024-03-26T17:18:31.025Z,6.60
2024-03-26T17:20:58.306Z,6.90
2024-03-26T17:23:25.638Z,8.10
2024-03-26T17:25:53.222Z,9.40
2024-03-26T17:28:20.384Z,8.60
2024-03-26T17:30:47.731Z,7.20
2024-03-26T17:33:14.909Z,6.80
2024-03-26T17:35:44.974Z,8.20
2024-03-26T17:38:12.233Z,8.50
2024-03-26T17:40:42.319Z,8.40
2024-03-26T17:43:10.206Z,6.00
2024-03-26T17:45:41.776Z,6.50
2024-03-26T17:48:09.284Z,7.10
2024-03-26T17:50:38.834Z,8.20
2024-03-26T17:53:12.134Z,6.70
2024-03-26T17:55:39.020Z,7.40
2024-03-26T17:58:05.842Z,6.80
2024-03-26T18:00:32.833Z,7.00
2024-03-26T18:02:59.675Z,8.80
2024-03-26T18:05:26.591Z,9.00
2024-03-26T18:07:53.482Z,10.20
2024-03-26T18:10:20.508Z,8.60
2024-03-26T18:12:48.109Z,8.10
2024-03-26T18:15:16.081Z,11.40
2024-03-26T18:17:42.952Z,9.60
2024-03-26T18:20:10.257Z,13.30
2024-03-26T18:22:37.878Z,12.60
2024-03-26T18:25:06.404Z,13.20
2024-03-26T18:27:34.360Z,11.60
2024-03-26T18:30:01.366Z,11.50
2024-03-26T18:32:28.341Z,10.40
2024-03-26T18:34:55.369Z,12.70
2024-03-26T18:37:22.437Z,14.60
2024-03-26T18:39:50.464Z,23.50
2024-03-26T18:42:17.557Z,15.80
2024-03-26T18:44:44.691Z,12.50
2024-03-26T18:47:11.470Z,13.30
2024-03-26T18:49:39.915Z,15.50
2024-03-26T18:52:09.159Z,16.70
2024-03-26T18:54:36.055Z,12.90
2024-03-26T18:57:03.009Z,14.20
2024-03-26T18:59:30.046Z,12.70
2024-03-26T19:01:59.024Z,13.40
2024-03-26T19:04:26.054Z,10.90
2024-03-26T19:06:52.984Z,11.80
2024-03-26T19:09:20.026Z,8.50
2024-03-26T19:11:47.934Z,10.50
2024-03-26T19:14:14.977Z,8.60
2024-03-26T19:16:41.899Z,7.50
2024-03-26T19:19:09.044Z,9.60
2024-03-26T19:21:36.502Z,12.30
2024-03-26T19:24:06.286Z,8.20
2024-03-26T19:26:34.515Z,8.00
2024-03-26T19:29:01.401Z,7.20
2024-03-26T19:31:36.891Z,8.00
2024-03-26T19:34:06.542Z,8.50
2024-03-26T19:36:33.535Z,7.80
2024-03-26T19:39:00.409Z,10.70
2024-03-26T19:41:27.617Z,9.20
2024-03-26T19:43:55.381Z,9.30
2024-03-26T19:46:22.940Z,8.40
2024-03-26T19:48:50.709Z,13.50
2024-03-26T19:51:18.099Z,8.30
2024-03-26T19:53:45.012Z,8.50
2024-03-26T19:56:13.340Z,7.00
2024-03-26T19:58:43.443Z,6.00
2024-03-26T20:01:11.289Z,7.90
2024-03-26T20:03:39.642Z,8.90
2024-03-26T20:06:11.123Z,10.30
2024-03-26T20:08:38.423Z,8.00
2024-03-26T20:11:07.262Z,8.60
2024-03-26T20:13:34.350Z,8.70
2024-03-26T20:16:01.248Z,8.80
2024-03-26T20:18:28.157Z,8.00
2024-03-26T20:21:02.175Z,10.90
2024-03-26T20:23:29.790Z,9.00
2024-03-26T20:26:00.852Z,11.20
2024-03-26T20:28:27.839Z,12.60
2024-03-26T20:31:05.397Z,10.10
2024-03-26T20:33:38.687Z,10.10
2024-03-26T20:36:06.456Z,11.50
2024-03-26T20:38:34.146Z,12.40
2024-03-26T20:41:05.228Z,11.90
2024-03-26T20:43:33.020Z,12.50
2024-03-26T20:46:00.262Z,11.80
2024-03-26T20:48:27.571Z,10.70
2024-03-26T20:50:54.608Z,10.70
2024-03-26T20:53:21.627Z,13.30
2024-03-26T20:55:48.956Z,13.70
2024-03-26T20:58:15.842Z,11.80
2024-03-26T21:00:43.090Z,13.90
2024-03-26T21:03:10.035Z,15.90
2024-03-26T21:05:37.059Z,12.70
2024-03-26T21:08:04.874Z,14.10
2024-03-26T21:10:32.583Z,13.50
2024-03-26T21:12:59.724Z,12.90
2024-03-26T21:15:29.329Z,13.40
2024-03-26T21:17:59.433Z,13.70
2024-03-26T21:20:27.414Z,15.30
2024-03-26T21:22:54.835Z,15.90
2024-03-26T21:25:22.445Z,12.50
2024-03-26T21:27:53.558Z,11.80
2024-03-26T21:30:20.442Z,16.90
2024-03-26T21:32:47.375Z,12.50
2024-03-26T21:35:14.288Z,11.90
2024-03-26T21:37:42.629Z,11.80
2024-03-26T21:40:12.419Z,11.00
2024-03-26T21:42:39.977Z,11.70
2024-03-26T21:45:07.633Z,12.60
2024-03-26T21:47:36.284Z,11.30
2024-03-26T21:50:03.436Z,12.30
2024-03-26T21:52:30.686Z,16.60
2024-03-26T21:54:57.894Z,29.60
2024-03-26T21:57:25.012Z,12.80
2024-03-26T21:59:52.130Z,14.70
2024-03-26T22:02:19.022Z,16.00
2024-03-26T22:04:52.137Z,14.50
2024-03-26T22:07:19.256Z,14.50
2024-03-26T22:09:48.029Z,20.90
2024-03-26T22:12:14.947Z,20.20
2024-03-26T22:14:42.775Z,25.30
2024-03-26T22:17:12.707Z,21.80
2024-03-26T22:19:39.690Z,21.40
2024-03-26T22:22:06.676Z,17.90
2024-03-26T22:24:33.615Z,17.40
2024-03-26T22:27:01.132Z,16.80
2024-03-26T22:29:28.037Z,14.70
2024-03-26T22:31:56.875Z,14.60
2024-03-26T22:34:23.847Z,18.10
2024-03-26T22:36:52.250Z,21.00
2024-03-26T22:39:19.243Z,18.50
2024-03-26T22:41:46.117Z,17.50
2024-03-26T22:44:12.906Z,16.50
2024-03-26T22:46:39.907Z,19.50
2024-03-26T22:49:06.961Z,15.00
2024-03-26T22:51:33.905Z,14.50
2024-03-26T22:54:00.907Z,14.00
2024-03-26T22:56:27.850Z,14.60
2024-03-26T22:58:54.814Z,12.90
2024-03-26T23:01:21.751Z,13.90
2024-03-26T23:03:48.604Z,12.60
2024-03-26T23:06:15.379Z,14.20
2024-03-26T23:08:43.969Z,15.40
2024-03-26T23:11:12.848Z,13.40
2024-03-26T23:13:39.688Z,11.70
2024-03-26T23:16:06.811Z,14.00
2024-03-26T23:18:34.121Z,14.80
2024-03-26T23:21:01.223Z,14.90
2024-03-26T23:23:28.217Z,10.30
2024-03-26T23:25:55.457Z,11.40
2024-03-26T23:28:22.380Z,12.90
2024-03-26T23:30:49.436Z,13.70
2024-03-26T23:33:16.332Z,11.60
2024-03-26T23:35:46.747Z,11.10
2024-03-26T23:38:14.458Z,11.50
2024-03-26T23:40:41.988Z,9.00
2024-03-26T23:43:08.892Z,14.20
2024-03-26T23:45:35.735Z,9.70
2024-03-26T23:48:03.215Z,9.80
2024-03-26T23:50:30.131Z,9.00
2024-03-26T23:52:57.233Z,10.70
2024-03-26T23:55:24.177Z,10.20
2024-03-26T23:57:51.222Z,11.10
